Terminal Aerodrome Forecast
Issued by NWS

Home | Current Version | Previous Version | Text Only | Print | Product List | Glossary On
Versions: 1 2 3 4 5 6 7 8 9 10 11 12 13
221
FTUS43 KGRB 242328
TAFAUW
TAF
KAUW 242328Z 2500/2524 26007KT P6SM SCT050
     FM250400 VRB03KT P6SM SCT012 BKN250
      TEMPO 2508/2512 4SM BR SCT010
     FM251500 11008KT P6SM SCT025 BKN220
     FM252100 12010KT P6SM SCT025 BKN050
      TEMPO 2522/2524 3SM TSRA OVC025CB=

USA.gov is the U.S. government's official web portal to all federal, state and local government web resources and services.